createdAt,value
2019-04-04T00:00:50.189Z,21.27
2019-04-04T00:03:16.351Z,22.07
2019-04-04T00:05:42.418Z,24.03
2019-04-04T00:08:08.467Z,24.03
2019-04-04T00:10:34.730Z,23.47
2019-04-04T00:13:01.391Z,22.77
2019-04-04T00:15:27.452Z,22.40
2019-04-04T00:17:53.815Z,23.57
2019-04-04T00:20:20.463Z,25.20
2019-04-04T00:22:46.535Z,22.30
2019-04-04T00:25:12.648Z,22.10
2019-04-04T00:27:38.704Z,21.87
2019-04-04T00:30:05.973Z,21.33
2019-04-04T00:32:32.051Z,22.47
2019-04-04T00:34:59.848Z,24.10
2019-04-04T00:37:26.083Z,23.83
2019-04-04T00:39:52.135Z,23.73
2019-04-04T00:42:18.187Z,24.43
2019-04-04T00:44:44.244Z,23.27
2019-04-04T00:47:10.299Z,24.10
2019-04-04T00:49:36.360Z,22.30
2019-04-04T00:52:02.818Z,21.67
2019-04-04T00:54:28.923Z,22.40
2019-04-04T00:56:55.143Z,21.47
2019-04-04T00:59:23.102Z,21.80
2019-04-04T01:01:49.172Z,22.63
2019-04-04T01:04:15.223Z,22.40
2019-04-04T01:06:41.299Z,22.23
2019-04-04T01:09:11.781Z,22.90
2019-04-04T01:11:35.416Z,23.43
2019-04-04T01:14:01.467Z,22.43
2019-04-04T01:16:27.527Z,24.53
2019-04-04T01:18:53.590Z,23.13
2019-04-04T01:21:20.171Z,23.43
2019-04-04T01:23:47.700Z,23.83
2019-04-04T01:26:13.753Z,35.47
2019-04-04T01:28:39.821Z,21.70
2019-04-04T01:31:05.858Z,22.57
2019-04-04T01:33:31.935Z,23.43
2019-04-04T01:35:58.024Z,24.93
2019-04-04T01:38:24.067Z,23.63
2019-04-04T01:40:50.124Z,24.73
2019-04-04T01:43:16.175Z,25.17
2019-04-04T01:45:44.160Z,25.27
2019-04-04T01:48:11.006Z,23.93
2019-04-04T01:50:37.055Z,22.70
2019-04-04T01:53:03.180Z,22.40
2019-04-04T01:55:29.260Z,22.97
2019-04-04T01:57:55.315Z,21.50
2019-04-04T02:00:21.471Z,22.20
2019-04-04T02:02:47.545Z,21.57
2019-04-04T02:05:13.582Z,24.43
2019-04-04T02:07:39.638Z,23.83
2019-04-04T02:10:06.299Z,22.83
2019-04-04T02:12:32.418Z,23.53
2019-04-04T02:14:58.465Z,23.43
2019-04-04T02:17:24.893Z,25.73
2019-04-04T02:19:50.952Z,22.13
2019-04-04T02:22:17.004Z,23.30
2019-04-04T02:24:43.079Z,21.90
2019-04-04T02:27:09.231Z,23.30
2019-04-04T02:29:35.283Z,23.07
2019-04-04T02:32:09.292Z,21.57
2019-04-04T02:34:37.745Z,23.43
2019-04-04T02:37:03.590Z,25.10
2019-04-04T02:39:29.653Z,23.63
2019-04-04T02:41:55.816Z,23.43
2019-04-04T02:44:21.871Z,23.93
2019-04-04T02:46:48.079Z,23.53
2019-04-04T02:49:14.216Z,22.30
2019-04-04T02:51:41.374Z,23.07
2019-04-04T02:54:07.819Z,22.97
2019-04-04T02:56:35.972Z,23.50
2019-04-04T02:59:02.437Z,21.93
2019-04-04T03:01:31.636Z,24.00
2019-04-04T03:03:56.545Z,23.43
2019-04-04T03:06:24.498Z,23.90
2019-04-04T03:08:50.561Z,24.33
2019-04-04T03:11:21.295Z,23.70
2019-04-04T03:13:44.735Z,25.67
2019-04-04T03:16:10.904Z,22.43
2019-04-04T03:18:38.025Z,23.03
2019-04-04T03:21:04.266Z,21.17
2019-04-04T03:23:33.033Z,23.53
2019-04-04T03:25:58.292Z,21.90
2019-04-04T03:28:24.381Z,22.63
2019-04-04T03:31:00.948Z,21.60
2019-04-04T03:33:18.538Z,22.07
2019-04-04T03:35:44.704Z,22.83
2019-04-04T03:38:13.495Z,23.03
2019-04-04T03:40:41.671Z,23.33
2019-04-04T03:43:06.764Z,23.40
2019-04-04T03:45:32.831Z,22.97
2019-04-04T03:47:58.988Z,23.87
2019-04-04T03:50:29.197Z,22.40
2019-04-04T03:52:53.112Z,21.73
2019-04-04T03:55:19.159Z,21.27
2019-04-04T03:57:45.224Z,21.57
2019-04-04T04:00:23.891Z,21.73
2019-04-04T04:02:50.922Z,21.27
2019-04-04T04:05:25.399Z,22.30
2019-04-04T04:07:51.507Z,22.90
2019-04-04T04:10:17.559Z,22.73
2019-04-04T04:12:43.970Z,22.40
2019-04-04T04:15:10.105Z,22.93
2019-04-04T04:17:36.588Z,24.20
2019-04-04T04:20:04.880Z,21.53
2019-04-04T04:22:31.175Z,21.43
2019-04-04T04:25:01.941Z,21.10
2019-04-04T04:27:25.226Z,21.77
2019-04-04T04:29:51.357Z,21.10
2019-04-04T04:32:21.472Z,21.73
2019-04-04T04:34:45.375Z,23.70
2019-04-04T04:37:11.453Z,25.07
2019-04-04T04:39:41.205Z,24.13
2019-04-04T04:42:05.543Z,22.97
2019-04-04T04:44:31.600Z,22.33
2019-04-04T04:46:57.651Z,21.40
2019-04-04T04:49:23.801Z,22.93
2019-04-04T04:51:49.859Z,21.73
2019-04-04T04:54:16.033Z,23.30
2019-04-04T04:56:42.094Z,22.40
2019-04-04T04:59:08.188Z,25.43
2019-04-04T05:01:34.360Z,22.80
2019-04-04T05:04:02.618Z,22.73
2019-04-04T05:06:29.010Z,23.73
2019-04-04T05:08:55.159Z,23.83
2019-04-04T05:11:21.232Z,24.67
2019-04-04T05:13:47.283Z,26.23
2019-04-04T05:16:13.327Z,23.53
2019-04-04T05:18:39.385Z,22.67
2019-04-04T05:21:05.455Z,22.07
2019-04-04T05:23:31.607Z,23.03
2019-04-04T05:25:57.711Z,23.87
2019-04-04T05:28:23.776Z,21.03
2019-04-04T05:30:49.851Z,21.30
2019-04-04T05:33:15.977Z,22.53
2019-04-04T05:35:42.165Z,25.27
2019-04-04T05:38:12.440Z,22.63
2019-04-04T05:40:38.191Z,22.90
2019-04-04T05:43:04.877Z,22.47
2019-04-04T05:45:31.208Z,22.43
2019-04-04T05:47:59.736Z,23.20
2019-04-04T05:50:25.266Z,22.97
2019-04-04T05:52:51.411Z,22.33
2019-04-04T05:55:17.597Z,21.37
2019-04-04T05:57:43.647Z,20.60
2019-04-04T06:00:12.029Z,22.60
2019-04-04T06:02:38.088Z,21.37
2019-04-04T06:05:05.250Z,22.27
2019-04-04T06:07:31.326Z,21.67
2019-04-04T06:09:57.468Z,20.87
2019-04-04T06:12:25.024Z,21.53
2019-04-04T06:14:51.515Z,21.57
2019-04-04T06:17:17.599Z,23.30
2019-04-04T06:19:44.605Z,23.80
2019-04-04T06:22:11.225Z,23.40
2019-04-04T06:24:37.289Z,22.53
2019-04-04T06:27:03.374Z,23.27
2019-04-04T06:29:29.464Z,22.30
2019-04-04T06:31:55.639Z,21.37
2019-04-04T06:34:23.964Z,23.90
2019-04-04T06:36:49.677Z,22.23
2019-04-04T06:39:15.824Z,23.43
2019-04-04T06:41:41.879Z,23.37
2019-04-04T06:44:07.935Z,22.33
2019-04-04T06:46:34.015Z,21.87
2019-04-04T06:49:03.974Z,23.30
2019-04-04T06:51:28.049Z,20.60
2019-04-04T06:53:54.538Z,22.27
2019-04-04T06:56:20.688Z,20.30
2019-04-04T06:58:46.749Z,20.83
2019-04-04T07:01:12.963Z,20.87
2019-04-04T07:03:39.136Z,24.20
2019-04-04T07:06:05.296Z,20.40
2019-04-04T07:08:31.443Z,21.23
2019-04-04T07:11:00.305Z,21.03
2019-04-04T07:13:28.000Z,21.10
2019-04-04T07:16:06.174Z,21.73
2019-04-04T07:18:21.438Z,22.90
2019-04-04T07:20:48.393Z,20.90
2019-04-04T07:23:15.058Z,20.53
2019-04-04T07:25:41.198Z,21.47
2019-04-04T07:28:07.279Z,20.00
2019-04-04T07:30:33.527Z,21.20
2019-04-04T07:32:59.583Z,20.77
2019-04-04T07:35:25.627Z,21.90
2019-04-04T07:37:56.579Z,21.40
2019-04-04T07:40:20.379Z,21.10
2019-04-04T07:42:47.949Z,21.33
2019-04-04T07:45:14.551Z,21.37
2019-04-04T07:47:40.689Z,20.80
2019-04-04T07:50:06.966Z,19.27
2019-04-04T07:52:33.642Z,21.17
2019-04-04T07:54:59.786Z,19.67
2019-04-04T07:57:25.830Z,19.60
2019-04-04T07:59:51.902Z,21.17
2019-04-04T08:02:17.952Z,19.77
2019-04-04T08:04:44.001Z,21.40
2019-04-04T08:07:10.051Z,21.30
2019-04-04T08:09:36.124Z,21.27
2019-04-04T08:12:02.188Z,21.57
2019-04-04T08:14:28.239Z,21.63
2019-04-04T08:16:54.299Z,21.50
2019-04-04T08:19:20.387Z,21.30
2019-04-04T08:21:46.505Z,20.40
2019-04-04T08:24:12.699Z,20.53
2019-04-04T08:26:38.752Z,20.83
2019-04-04T08:29:04.908Z,20.67
2019-04-04T08:31:30.983Z,20.40
2019-04-04T08:33:57.067Z,21.70
2019-04-04T08:36:23.114Z,23.50
2019-04-04T08:38:49.164Z,22.67
2019-04-04T08:41:15.223Z,22.33
2019-04-04T08:43:41.268Z,26.57
2019-04-04T08:46:07.376Z,22.80
2019-04-04T08:48:33.436Z,24.13
2019-04-04T08:50:59.491Z,21.07
2019-04-04T08:53:25.563Z,21.10
2019-04-04T08:55:51.623Z,20.87
2019-04-04T08:58:17.675Z,21.50
2019-04-04T09:00:43.733Z,20.47
2019-04-04T09:03:09.815Z,19.77
2019-04-04T09:05:35.858Z,21.33
2019-04-04T09:08:01.915Z,21.30
2019-04-04T09:10:27.983Z,21.80
2019-04-04T09:12:54.220Z,21.27
2019-04-04T09:15:20.269Z,21.73
2019-04-04T09:17:46.323Z,21.43
2019-04-04T09:20:12.479Z,20.07
2019-04-04T09:22:40.847Z,19.77
2019-04-04T09:25:10.256Z,19.40
2019-04-04T09:27:35.951Z,20.77
2019-04-04T09:30:04.323Z,20.83
2019-04-04T09:32:30.391Z,20.63
2019-04-04T09:34:56.435Z,22.13
2019-04-04T09:37:22.523Z,21.43
2019-04-04T09:39:48.571Z,22.20
2019-04-04T09:42:14.626Z,21.43
2019-04-04T09:44:40.679Z,20.90
2019-04-04T09:47:06.727Z,22.67
2019-04-04T09:49:32.808Z,20.13
2019-04-04T09:51:58.858Z,20.10
2019-04-04T09:54:24.911Z,20.17
2019-04-04T09:56:51.103Z,19.83
2019-04-04T09:59:17.172Z,19.50
2019-04-04T10:01:43.219Z,20.30
2019-04-04T10:04:09.367Z,21.13
2019-04-04T10:06:35.427Z,23.00
2019-04-04T10:09:14.773Z,21.83
2019-04-04T10:11:29.453Z,20.80
2019-04-04T10:13:55.527Z,21.00
2019-04-04T10:16:21.663Z,22.60
2019-04-04T10:18:47.804Z,21.10
2019-04-04T10:21:13.890Z,19.93
2019-04-04T10:23:39.985Z,22.90
2019-04-04T10:26:06.195Z,20.43
2019-04-04T10:28:32.260Z,19.87
2019-04-04T10:30:58.377Z,20.10
2019-04-04T10:33:24.496Z,21.23
2019-04-04T10:35:50.567Z,22.13
2019-04-04T10:38:17.099Z,6.57
2019-04-04T10:40:43.227Z,7.70
2019-04-04T10:43:09.636Z,16.77
2019-04-04T10:45:35.696Z,17.97
2019-04-04T10:48:01.779Z,18.60
2019-04-04T10:50:28.211Z,16.30
2019-04-04T10:52:54.268Z,18.70
2019-04-04T10:55:20.355Z,15.90
2019-04-04T10:57:46.783Z,15.73
2019-04-04T11:00:13.627Z,16.23
2019-04-04T11:02:39.819Z,15.93
2019-04-04T11:05:06.368Z,18.20
2019-04-04T11:07:33.297Z,18.23
2019-04-04T11:09:59.382Z,18.53
2019-04-04T11:12:25.543Z,19.77
2019-04-04T11:14:51.599Z,18.10
2019-04-04T11:17:17.652Z,18.50
2019-04-04T11:19:43.711Z,16.70
2019-04-04T11:22:09.792Z,16.93
2019-04-04T11:24:35.889Z,19.37
2019-04-04T11:27:01.974Z,16.87
2019-04-04T11:29:28.039Z,16.97
2019-04-04T11:31:54.092Z,17.30
2019-04-04T11:34:20.186Z,17.97
2019-04-04T11:36:46.227Z,19.10
2019-04-04T11:39:12.307Z,19.83
2019-04-04T11:41:38.376Z,20.17
2019-04-04T11:44:04.419Z,19.77
2019-04-04T11:46:30.483Z,19.43
2019-04-04T11:48:56.527Z,17.43
2019-04-04T11:51:22.584Z,18.73
2019-04-04T11:53:48.639Z,17.40
2019-04-04T11:56:14.711Z,16.70
2019-04-04T11:58:40.763Z,17.80
2019-04-04T12:01:11.272Z,18.37
2019-04-04T12:03:37.319Z,21.57
2019-04-04T12:06:03.469Z,20.57
2019-04-04T12:08:29.549Z,20.90
2019-04-04T12:10:55.608Z,19.80
2019-04-04T12:13:21.687Z,20.90
2019-04-04T12:15:47.752Z,19.13
2019-04-04T12:18:13.996Z,21.57
2019-04-04T12:20:43.043Z,17.97
2019-04-04T12:23:08.017Z,19.57
2019-04-04T12:25:34.070Z,18.30
2019-04-04T12:28:00.132Z,18.83
2019-04-04T12:30:26.180Z,17.23
2019-04-04T12:32:52.259Z,19.07
2019-04-04T12:35:18.415Z,21.47
2019-04-04T12:37:44.475Z,18.73
2019-04-04T12:40:20.598Z,18.63
2019-04-04T12:42:38.627Z,19.27
2019-04-04T12:45:05.780Z,20.23
2019-04-04T12:47:31.891Z,19.13
2019-04-04T12:49:57.949Z,17.10
2019-04-04T12:52:24.099Z,17.90
2019-04-04T12:54:50.244Z,17.40
2019-04-04T12:57:16.304Z,17.37
2019-04-04T12:59:42.355Z,17.33
2019-04-04T13:02:08.411Z,19.67
2019-04-04T13:04:34.490Z,21.53
2019-04-04T13:07:00.653Z,19.93
2019-04-04T13:09:26.716Z,20.33
2019-04-04T13:11:52.764Z,21.90
2019-04-04T13:14:18.835Z,20.57
2019-04-04T13:16:44.899Z,21.53
2019-04-04T13:19:10.972Z,19.03
2019-04-04T13:21:37.143Z,17.90
2019-04-04T13:24:03.398Z,18.60
2019-04-04T13:26:29.460Z,17.77
2019-04-04T13:28:55.616Z,18.10
2019-04-04T13:31:21.668Z,17.87
2019-04-04T13:33:47.722Z,21.20
2019-04-04T13:36:13.823Z,21.70
2019-04-04T13:38:39.902Z,19.63
2019-04-04T13:41:05.975Z,19.67
2019-04-04T13:43:32.124Z,20.07
2019-04-04T13:45:58.209Z,19.33
2019-04-04T13:48:24.254Z,20.20
2019-04-04T13:50:50.311Z,18.27
2019-04-04T13:53:16.375Z,18.70
2019-04-04T13:55:42.427Z,18.73
2019-04-04T13:58:08.484Z,19.87
2019-04-04T14:00:34.567Z,19.07
2019-04-04T14:03:00.611Z,18.60
2019-04-04T14:05:26.671Z,19.83
2019-04-04T14:07:52.740Z,20.23
2019-04-04T14:10:18.823Z,20.30
2019-04-04T14:12:44.932Z,21.20
2019-04-04T14:15:11.492Z,22.57
2019-04-04T14:17:37.547Z,20.70
2019-04-04T14:20:07.244Z,18.77
2019-04-04T14:22:33.308Z,18.43
2019-04-04T14:24:59.363Z,19.93
2019-04-04T14:27:27.423Z,19.83
2019-04-04T14:29:55.311Z,18.93
2019-04-04T14:32:21.416Z,18.20
2019-04-04T14:34:47.643Z,18.33
2019-04-04T14:37:13.716Z,20.73
2019-04-04T14:39:39.845Z,21.03
2019-04-04T14:42:05.894Z,23.33
2019-04-04T14:44:31.987Z,20.63
2019-04-04T14:46:58.035Z,20.53
2019-04-04T14:49:24.101Z,19.20
2019-04-04T14:51:50.355Z,18.43
2019-04-04T14:54:16.461Z,19.47
2019-04-04T14:56:42.602Z,20.43
2019-04-04T14:59:08.647Z,18.57
2019-04-04T15:01:35.139Z,18.90
2019-04-04T15:04:01.496Z,21.43
2019-04-04T15:06:27.560Z,20.23
2019-04-04T15:08:53.607Z,20.57
2019-04-04T15:11:24.294Z,22.43
2019-04-04T15:13:47.690Z,20.60
2019-04-04T15:16:15.499Z,20.13
2019-04-04T15:18:41.768Z,19.00
2019-04-04T15:21:08.427Z,18.43
2019-04-04T15:23:34.479Z,19.67
2019-04-04T15:26:00.543Z,19.97
2019-04-04T15:28:26.599Z,18.03
2019-04-04T15:30:52.683Z,18.70
2019-04-04T15:33:18.767Z,20.43
2019-04-04T15:35:44.819Z,21.77
2019-04-04T15:38:10.876Z,21.27
2019-04-04T15:40:36.940Z,21.00
2019-04-04T15:43:03.016Z,20.10
2019-04-04T15:45:29.119Z,20.90
2019-04-04T15:47:55.318Z,21.10
2019-04-04T15:50:21.579Z,19.60
2019-04-04T15:52:47.715Z,19.07
2019-04-04T15:55:13.896Z,19.30
2019-04-04T15:57:39.956Z,20.57
2019-04-04T16:00:06.511Z,22.30
2019-04-04T16:02:32.631Z,19.20
2019-04-04T16:04:58.686Z,20.67
2019-04-04T16:07:24.762Z,21.57
2019-04-04T16:09:50.855Z,21.20
2019-04-04T16:12:16.914Z,20.50
2019-04-04T16:14:42.983Z,21.73
2019-04-04T16:17:09.056Z,20.80
2019-04-04T16:19:35.115Z,19.73
2019-04-04T16:22:01.163Z,19.33
2019-04-04T16:24:27.215Z,18.90
2019-04-04T16:26:53.280Z,18.23
2019-04-04T16:29:19.332Z,18.80
2019-04-04T16:31:45.427Z,19.40
2019-04-04T16:34:11.487Z,20.13
2019-04-04T16:36:37.540Z,22.30
2019-04-04T16:39:06.800Z,20.80
2019-04-04T16:41:32.887Z,20.90
2019-04-04T16:43:58.937Z,20.33
2019-04-04T16:46:24.996Z,20.03
2019-04-04T16:48:51.054Z,18.60
2019-04-04T16:51:17.208Z,19.10
2019-04-04T16:53:43.296Z,22.93
2019-04-04T16:56:09.443Z,19.03
2019-04-04T16:58:36.927Z,19.07
2019-04-04T17:01:03.268Z,19.03
2019-04-04T17:03:29.347Z,19.20
2019-04-04T17:05:55.399Z,20.43
2019-04-04T17:08:21.449Z,19.40
2019-04-04T17:10:47.517Z,18.50
2019-04-04T17:13:13.575Z,18.50
2019-04-04T17:15:39.655Z,18.30
2019-04-04T17:18:05.741Z,19.77
2019-04-04T17:20:31.901Z,19.47
2019-04-04T17:22:57.960Z,18.00
2019-04-04T17:25:24.032Z,18.50
2019-04-04T17:27:50.081Z,18.90
2019-04-04T17:30:16.231Z,17.80
2019-04-04T17:32:42.301Z,17.97
2019-04-04T17:35:08.898Z,21.93
2019-04-04T17:37:35.153Z,23.03
2019-04-04T17:40:01.648Z,30.40
2019-04-04T17:42:31.323Z,26.03
2019-04-04T17:44:55.841Z,20.00
2019-04-04T17:47:22.521Z,22.83
2019-04-04T17:49:49.190Z,21.23
2019-04-04T17:52:15.377Z,18.23
2019-04-04T17:54:41.782Z,18.47
2019-04-04T17:57:08.635Z,18.70
2019-04-04T17:59:34.924Z,18.73
2019-04-04T18:02:00.971Z,19.60
2019-04-04T18:04:27.019Z,20.57
2019-04-04T18:06:53.079Z,20.77
2019-04-04T18:09:30.954Z,22.37
2019-04-04T18:11:47.279Z,21.80
2019-04-04T18:14:13.788Z,26.67
2019-04-04T18:16:40.009Z,22.77
2019-04-04T18:19:06.615Z,20.87
2019-04-04T18:21:32.804Z,21.27
2019-04-04T18:23:58.960Z,22.43
2019-04-04T18:26:25.575Z,22.80
2019-04-04T18:28:51.805Z,19.13
2019-04-04T18:31:18.384Z,22.47
2019-04-04T18:33:44.920Z,23.57
2019-04-04T18:36:11.604Z,22.03
2019-04-04T18:38:37.847Z,22.10
2019-04-04T18:41:03.909Z,21.80
2019-04-04T18:43:30.038Z,22.70
2019-04-04T18:45:56.249Z,21.53
2019-04-04T18:48:22.313Z,20.93
2019-04-04T18:50:48.431Z,19.07
2019-04-04T18:53:14.564Z,20.40
2019-04-04T18:55:40.644Z,19.13
2019-04-04T18:58:06.717Z,20.90
2019-04-04T19:00:32.801Z,19.07
2019-04-04T19:02:59.004Z,19.50
2019-04-04T19:05:25.052Z,21.50
2019-04-04T19:07:51.132Z,22.37
2019-04-04T19:10:17.565Z,22.30
2019-04-04T19:12:43.651Z,21.20
2019-04-04T19:15:10.315Z,22.80
2019-04-04T19:17:36.458Z,18.90
2019-04-04T19:20:08.358Z,20.93
2019-04-04T19:22:36.861Z,19.67
2019-04-04T19:25:04.725Z,19.90
2019-04-04T19:27:31.503Z,19.83
2019-04-04T19:29:57.555Z,18.67
2019-04-04T19:32:23.621Z,19.17
2019-04-04T19:34:49.771Z,21.30
2019-04-04T19:37:15.823Z,21.73
2019-04-04T19:39:41.952Z,22.40
2019-04-04T19:42:08.234Z,22.37
2019-04-04T19:44:34.671Z,21.40
2019-04-04T19:47:00.719Z,21.63
2019-04-04T19:49:26.775Z,18.93
2019-04-04T19:51:52.827Z,19.93
2019-04-04T19:54:19.380Z,19.40
2019-04-04T19:56:45.640Z,23.00
2019-04-04T19:59:11.701Z,21.07
2019-04-04T20:01:37.770Z,19.03
2019-04-04T20:04:03.848Z,22.57
2019-04-04T20:06:29.904Z,21.13
2019-04-04T20:08:55.954Z,21.70
2019-04-04T20:11:22.151Z,21.57
2019-04-04T20:13:48.222Z,24.50
2019-04-04T20:16:14.356Z,21.40
2019-04-04T20:18:40.412Z,20.60
2019-04-04T20:21:06.843Z,20.97
2019-04-04T20:23:33.275Z,23.00
2019-04-04T20:25:59.733Z,22.23
2019-04-04T20:28:26.297Z,21.53
2019-04-04T20:30:52.718Z,21.10
2019-04-04T20:33:19.151Z,22.43
2019-04-04T20:35:45.418Z,21.90
2019-04-04T20:38:31.423Z,21.00
2019-04-04T20:40:57.556Z,22.00
2019-04-04T20:43:23.610Z,20.50
2019-04-04T20:45:49.661Z,20.70
2019-04-04T20:48:15.711Z,20.87
2019-04-04T20:50:41.790Z,21.83
2019-04-04T20:53:08.207Z,19.63
2019-04-04T20:55:34.307Z,20.17
2019-04-04T20:58:00.740Z,21.23
2019-04-04T21:00:26.803Z,19.50
2019-04-04T21:02:52.908Z,22.70
2019-04-04T21:05:19.038Z,21.53
2019-04-04T21:07:45.564Z,20.93
2019-04-04T21:10:11.820Z,21.93
2019-04-04T21:12:37.907Z,20.90
2019-04-04T21:15:05.275Z,21.03
2019-04-04T21:17:31.352Z,21.77
2019-04-04T21:19:57.456Z,27.37
2019-04-04T21:22:27.667Z,20.37
2019-04-04T21:24:51.954Z,20.80
2019-04-04T21:27:18.911Z,19.80
2019-04-04T21:29:45.647Z,19.50
2019-04-04T21:32:11.709Z,18.87
2019-04-04T21:34:37.803Z,21.53
2019-04-04T21:37:03.892Z,21.70
2019-04-04T21:39:30.067Z,22.63
2019-04-04T21:41:56.185Z,25.20
2019-04-04T21:44:22.622Z,22.03
2019-04-04T21:46:48.667Z,22.70
2019-04-04T21:49:14.723Z,19.13
2019-04-04T21:51:40.785Z,19.20
2019-04-04T21:54:06.835Z,19.83
2019-04-04T21:56:32.892Z,19.20
2019-04-04T21:58:58.950Z,19.57
2019-04-04T22:01:25.063Z,19.77
2019-04-04T22:03:51.210Z,21.27
2019-04-04T22:06:17.271Z,21.70
2019-04-04T22:08:43.324Z,24.27
2019-04-04T22:11:09.379Z,20.80
2019-04-04T22:13:35.460Z,22.23
2019-04-04T22:16:01.576Z,20.33
2019-04-04T22:18:27.748Z,22.07
2019-04-04T22:20:53.833Z,20.10
2019-04-04T22:23:20.036Z,20.47
2019-04-04T22:25:46.115Z,19.57
2019-04-04T22:28:12.171Z,18.67
2019-04-04T22:30:38.287Z,23.30
2019-04-04T22:33:04.441Z,18.70
2019-04-04T22:35:30.490Z,23.67
2019-04-04T22:37:56.539Z,20.60
2019-04-04T22:40:22.640Z,20.60
2019-04-04T22:42:48.821Z,20.53
2019-04-04T22:45:15.249Z,21.20
2019-04-04T22:47:41.409Z,21.13
2019-04-04T22:50:08.007Z,19.07
2019-04-04T22:52:34.148Z,19.93
2019-04-04T22:55:00.264Z,18.47
2019-04-04T22:57:26.460Z,21.07
2019-04-04T22:59:52.602Z,20.80
2019-04-04T23:02:19.037Z,19.40
2019-04-04T23:04:45.116Z,20.80
2019-04-04T23:07:11.269Z,20.97
2019-04-04T23:09:37.832Z,19.90
2019-04-04T23:12:04.000Z,24.70
2019-04-04T23:14:30.047Z,19.67
2019-04-04T23:16:56.148Z,18.93
2019-04-04T23:19:22.664Z,21.93
2019-04-04T23:21:48.731Z,19.20
2019-04-04T23:24:14.796Z,19.60
2019-04-04T23:26:40.917Z,18.60
2019-04-04T23:29:07.072Z,19.67
2019-04-04T23:31:33.468Z,18.33
2019-04-04T23:33:59.657Z,20.37
2019-04-04T23:36:34.926Z,21.50
2019-04-04T23:38:53.797Z,20.27
2019-04-04T23:41:19.881Z,22.10
2019-04-04T23:43:46.098Z,23.50
2019-04-04T23:46:12.222Z,20.47
2019-04-04T23:48:38.341Z,19.47
2019-04-04T23:51:04.564Z,19.10
2019-04-04T23:53:30.743Z,18.63
2019-04-04T23:55:56.942Z,19.23
2019-04-04T23:58:23.458Z,19.60
